Time;durP1;ratioP1;P1;durP2;ratioP2;P2;SDS_P1;SDS_P2;PMS_P1;PMS_P2;Temp;Humidity;BMP_temperature;BMP_pressure;BME280_temperature;BME280_humidity;BME280_pressure;Samples;Min_cycle;Max_cycle;Signal;HPM_P1;HPM_P2
2023/05/30 00:01:32;;;;;;;16.77;3.92;;;;;;;10.53;100.00;102857.41;5026572;28;20032;-61
2023/05/30 00:03:57;;;;;;;17.20;3.47;;;;;;;10.52;100.00;102862.69;5024693;28;20035;-59
2023/05/30 00:06:22;;;;;;;23.10;3.90;;;;;;;10.54;100.00;102861.81;5026231;28;20029;-60
2023/05/30 00:08:48;;;;;;;17.80;3.85;;;;;;;10.57;100.00;102861.81;5026358;28;20072;-60
2023/05/30 00:11:13;;;;;;;24.52;4.03;;;;;;;10.53;100.00;102867.97;5025398;28;20484;-61
2023/05/30 00:13:45;;;;;;;19.80;3.55;;;;;;;10.47;100.00;102860.06;5026553;28;20040;-59
2023/05/30 00:16:11;;;;;;;24.85;3.58;;;;;;;10.44;100.00;102860.03;5025353;28;20018;-60
2023/05/30 00:18:37;;;;;;;23.35;3.22;;;;;;;10.43;100.00;102855.63;5026060;28;20029;-60
2023/05/30 00:21:06;;;;;;;19.60;3.90;;;;;;;10.53;100.00;102859.19;5024532;28;20564;-60
2023/05/30 00:23:33;;;;;;;16.77;4.05;;;;;;;10.51;100.00;102861.84;5025019;28;20029;-59
2023/05/30 00:25:59;;;;;;;15.98;3.25;;;;;;;10.48;100.00;102860.06;5024614;28;20032;-61
2023/05/30 00:28:25;;;;;;;15.07;3.63;;;;;;;10.49;100.00;102867.09;5023604;28;20060;-60
2023/05/30 00:30:50;;;;;;;19.13;4.20;;;;;;;10.42;100.00;102872.34;5026252;28;20380;-60
2023/05/30 00:33:16;;;;;;;17.20;3.65;;;;;;;10.44;100.00;102879.38;5024218;28;20429;-59
2023/05/30 00:35:41;;;;;;;17.05;3.47;;;;;;;10.49;100.00;102875.00;5026197;28;20029;-60
2023/05/30 00:38:07;;;;;;;15.73;3.60;;;;;;;10.41;100.00;102878.50;5028273;28;20508;-59
2023/05/30 00:40:32;;;;;;;19.35;3.50;;;;;;;10.44;100.00;102875.84;5030890;28;20072;-59
2023/05/30 00:42:57;;;;;;;16.75;3.60;;;;;;;10.46;100.00;102879.41;5032990;28;20772;-59
2023/05/30 00:45:23;;;;;;;20.88;3.40;;;;;;;10.56;100.00;102874.97;5031962;28;20018;-61
2023/05/30 00:47:50;;;;;;;20.77;3.60;;;;;;;10.41;100.00;102882.00;5025485;28;20022;-61
2023/05/30 00:50:16;;;;;;;22.08;3.88;;;;;;;10.38;100.00;102878.50;5031947;28;20034;-61
2023/05/30 00:52:41;;;;;;;18.92;3.35;;;;;;;10.32;100.00;102877.59;5031623;28;20029;-59
2023/05/30 00:55:07;;;;;;;27.60;4.35;;;;;;;10.24;100.00;102876.75;5030748;28;20080;-59
2023/05/30 00:57:33;;;;;;;21.40;3.70;;;;;;;10.30;100.00;102884.63;5031226;28;20033;-60
2023/05/30 00:59:59;;;;;;;20.65;3.70;;;;;;;10.32;100.00;102884.63;5029371;28;20044;-60
2023/05/30 01:02:25;;;;;;;13.40;3.40;;;;;;;10.30;100.00;102883.75;5095144;22;20109;-60
2023/05/30 01:04:50;;;;;;;17.77;3.63;;;;;;;10.38;100.00;102891.69;5009518;28;20544;-61
2023/05/30 01:07:16;;;;;;;21.15;3.35;;;;;;;10.43;100.00;102882.88;5024739;28;20092;-59
2023/05/30 01:09:41;;;;;;;21.00;3.78;;;;;;;10.48;100.00;102888.19;5032533;28;20057;-59
2023/05/30 01:12:10;;;;;;;20.27;3.67;;;;;;;10.42;100.00;102889.00;5029288;28;20109;-61
2023/05/30 01:14:45;;;;;;;17.73;4.20;;;;;;;10.41;100.00;102886.41;5015477;28;20160;-59
2023/05/30 01:17:20;;;;;;;21.38;3.28;;;;;;;10.41;100.00;102876.72;5030252;28;20025;-59
2023/05/30 01:20:12;;;;;;;18.02;3.60;;;;;;;10.41;100.00;102881.13;4994940;28;20038;-60
2023/05/30 01:23:00;;;;;;;15.40;3.35;;;;;;;10.38;100.00;102881.13;5012071;28;20044;-62
2023/05/30 01:25:38;;;;;;;15.27;3.90;;;;;;;10.33;100.00;102887.25;5031493;28;20656;-58
2023/05/30 01:28:15;;;;;;;20.10;4.25;;;;;;;10.27;100.00;102887.28;5014153;28;20287;-61
2023/05/30 01:30:44;;;;;;;19.40;3.97;;;;;;;10.27;100.00;102884.66;5012666;28;20545;-60
2023/05/30 01:33:10;;;;;;;15.32;3.10;;;;;;;10.22;100.00;102887.28;5015184;28;20033;-59
2023/05/30 01:35:35;;;;;;;12.35;3.05;;;;;;;10.23;100.00;102883.75;5028975;28;20368;-59
2023/05/30 01:38:01;;;;;;;24.08;4.00;;;;;;;10.22;100.00;102886.38;5032135;28;20033;-60
2023/05/30 01:40:27;;;;;;;21.10;4.20;;;;;;;10.24;100.00;102882.00;5029904;28;20021;-60
2023/05/30 01:43:17;;;;;;;21.02;3.33;;;;;;;10.24;100.00;102884.66;5012169;28;20037;-60
2023/05/30 01:45:46;;;;;;;17.83;3.38;;;;;;;10.15;100.00;102882.88;4990586;28;20646;-62
2023/05/30 01:48:18;;;;;;;;;;;;;;;10.17;100.00;102888.16;5028807;28;20056;-60
2023/05/30 01:50:47;;;;;;;12.00;3.33;;;;;;;10.11;100.00;102882.00;5008940;28;19917;-60
2023/05/30 01:53:17;;;;;;;12.93;3.30;;;;;;;10.05;100.00;102886.41;5006661;28;20116;-63
2023/05/30 01:55:44;;;;;;;16.27;3.67;;;;;;;10.02;100.00;102891.66;5012927;28;20044;-61
2023/05/30 01:58:12;;;;;;;13.10;3.53;;;;;;;9.96;100.00;102888.13;5009307;28;20176;-59
2023/05/30 02:00:37;;;;;;;17.42;4.18;;;;;;;9.97;100.00;102892.50;5009512;28;20010;-61
2023/05/30 02:03:02;;;;;;;17.60;3.50;;;;;;;9.90;100.00;102895.16;5010751;28;20515;-60
2023/05/30 02:05:28;;;;;;;17.13;3.28;;;;;;;9.86;100.00;102889.88;5024841;28;20107;-60
2023/05/30 02:07:53;;;;;;;17.67;3.70;;;;;;;9.81;100.00;102893.38;5027405;28;20044;-60
2023/05/30 02:10:18;;;;;;;18.02;3.75;;;;;;;9.82;100.00;102895.97;5029140;28;20101;-60
2023/05/30 02:12:44;;;;;;;15.75;4.10;;;;;;;9.87;100.00;102896.00;5025678;28;20487;-59
2023/05/30 02:15:10;;;;;;;15.02;4.10;;;;;;;9.85;100.00;102903.03;5028828;28;20048;-59
2023/05/30 02:17:36;;;;;;;19.38;4.30;;;;;;;9.90;100.00;102895.16;5027832;28;20687;-59
2023/05/30 02:20:01;;;;;;;15.00;3.90;;;;;;;9.97;100.00;102900.41;5024888;28;20507;-63
2023/05/30 02:22:26;;;;;;;14.10;3.50;;;;;;;10.05;100.00;102902.19;5028645;28;20116;-59
2023/05/30 02:24:52;;;;;;;15.38;3.92;;;;;;;10.16;100.00;102912.72;5010446;28;20418;-59
2023/05/30 02:27:17;;;;;;;20.40;3.40;;;;;;;10.26;100.00;102909.22;5008068;28;20503;-60
2023/05/30 02:29:43;;;;;;;17.48;4.30;;;;;;;10.34;100.00;102911.88;5028589;28;20037;-60
2023/05/30 02:32:08;;;;;;;20.55;4.45;;;;;;;10.41;100.00;102905.72;5027995;28;20033;-60
2023/05/30 02:34:33;;;;;;;12.40;3.80;;;;;;;10.52;100.00;102896.97;5024270;28;20518;-59
2023/05/30 02:37:00;;;;;;;15.02;4.10;;;;;;;10.60;100.00;102909.25;5027880;28;20040;-60
2023/05/30 02:39:25;;;;;;;16.05;3.88;;;;;;;10.62;100.00;102901.34;5027829;28;20026;-61
2023/05/30 02:41:51;;;;;;;15.70;4.05;;;;;;;10.70;100.00;102899.59;5025472;28;20072;-59
2023/05/30 02:44:16;;;;;;;13.98;3.80;;;;;;;10.81;100.00;102902.19;5028681;28;20025;-60
2023/05/30 02:46:41;;;;;;;16.30;3.40;;;;;;;10.86;100.00;102905.72;5028169;28;20034;-61
2023/05/30 02:49:07;;;;;;;18.40;3.42;;;;;;;10.96;100.00;102903.06;5006345;28;20020;-60
2023/05/30 02:51:32;;;;;;;13.65;3.65;;;;;;;10.99;100.00;102898.66;5028158;28;20037;-61
2023/05/30 02:53:57;;;;;;;15.50;4.50;;;;;;;11.04;100.00;102908.28;5026943;28;20404;-60
2023/05/30 02:56:25;;;;;;;18.10;3.50;;;;;;;11.10;100.00;102910.94;5025007;28;20079;-62
2023/05/30 02:58:51;;;;;;;10.52;3.65;;;;;;;11.13;100.00;102910.91;5027757;28;20149;-60
2023/05/30 03:01:16;;;;;;;20.83;3.90;;;;;;;11.16;100.00;102910.91;5027017;28;20555;-59
2023/05/30 03:03:42;;;;;;;11.32;3.53;;;;;;;11.19;100.00;102913.53;5024948;28;20452;-60
2023/05/30 03:06:07;;;;;;;12.85;3.45;;;;;;;11.09;100.00;102899.50;5027968;28;20172;-59
2023/05/30 03:08:32;;;;;;;18.25;3.60;;;;;;;11.18;100.00;102903.88;5027680;28;20494;-62
2023/05/30 03:10:58;;;;;;;13.88;3.67;;;;;;;11.18;100.00;102900.34;5024944;28;20076;-59
2023/05/30 03:13:23;;;;;;;14.00;3.70;;;;;;;11.18;100.00;102900.34;5009508;28;20191;-61
2023/05/30 03:15:49;;;;;;;12.82;4.30;;;;;;;11.07;100.00;102896.00;5026493;28;20450;-61
2023/05/30 03:18:14;;;;;;;16.27;3.33;;;;;;;11.18;100.00;102895.97;5024590;28;20467;-59
2023/05/30 03:20:40;;;;;;;15.52;3.40;;;;;;;11.15;100.00;102895.09;5027048;28;20028;-59
2023/05/30 03:23:06;;;;;;;11.40;3.13;;;;;;;11.21;100.00;102900.34;5027014;28;20064;-57
2023/05/30 03:25:32;;;;;;;16.13;3.90;;;;;;;11.29;100.00;102895.91;5024618;28;20079;-60
2023/05/30 03:27:57;;;;;;;9.73;2.85;;;;;;;11.39;100.00;102894.13;5026971;28;20029;-60
2023/05/30 03:30:26;;;;;;;15.50;3.70;;;;;;;11.41;100.00;102894.13;5025815;28;20029;-59
2023/05/30 03:32:52;;;;;;;17.90;3.72;;;;;;;11.30;100.00;102896.78;5025977;28;20030;-59
2023/05/30 03:35:17;;;;;;;14.02;3.42;;;;;;;11.50;100.00;102902.00;5026154;28;20032;-60
2023/05/30 03:37:43;;;;;;;14.30;4.53;;;;;;;11.41;100.00;102899.41;5024132;28;20026;-59
2023/05/30 03:40:10;;;;;;;22.13;4.07;;;;;;;11.42;100.00;102912.59;5027202;28;20045;-58
2023/05/30 03:42:35;;;;;;;12.98;3.75;;;;;;;11.41;100.00;102917.88;5008659;28;20017;-59
2023/05/30 03:45:01;;;;;;;9.20;3.35;;;;;;;11.42;100.00;102914.34;5023985;28;20140;-58
2023/05/30 03:47:26;;;;;;;12.82;3.20;;;;;;;11.38;100.00;102922.28;5026980;28;20171;-60
2023/05/30 03:49:52;;;;;;;11.73;3.53;;;;;;;11.49;100.00;102926.63;4989342;28;20033;-59
2023/05/30 03:52:17;;;;;;;14.63;3.20;;;;;;;11.50;100.00;102918.69;5027454;28;20017;-58
2023/05/30 03:54:43;;;;;;;16.80;3.53;;;;;;;11.60;100.00;102913.38;5023396;28;20022;-61
2023/05/30 03:57:08;;;;;;;9.60;3.78;;;;;;;11.55;100.00;102918.69;5027074;28;20472;-58
2023/05/30 03:59:34;;;;;;;18.38;3.88;;;;;;;11.58;100.00;102923.94;5026600;28;20018;-59
2023/05/30 04:01:59;;;;;;;8.82;3.17;;;;;;;11.61;100.00;102926.59;5023109;28;20171;-61
2023/05/30 04:04:26;;;;;;;15.27;3.90;;;;;;;11.38;100.00;102922.28;5026409;28;20052;-60
2023/05/30 04:06:52;;;;;;;13.20;3.58;;;;;;;11.47;100.00;102917.84;5007941;28;20030;-59
2023/05/30 04:09:17;;;;;;;12.93;3.53;;;;;;;11.54;100.00;102916.94;5006160;28;20044;-60
2023/05/30 04:11:43;;;;;;;10.55;3.72;;;;;;;11.42;100.00;102925.78;5026698;28;20429;-60
2023/05/30 04:14:08;;;;;;;9.38;3.20;;;;;;;11.45;100.00;102924.91;5025584;28;20394;-58
2023/05/30 04:16:34;;;;;;;10.70;4.00;;;;;;;11.48;100.00;102927.53;5023580;28;20383;-60
2023/05/30 04:18:59;;;;;;;16.90;4.55;;;;;;;11.53;100.00;102923.09;5025836;28;20052;-60
2023/05/30 04:21:26;;;;;;;17.33;3.45;;;;;;;11.57;100.00;102919.56;5026034;28;20091;-59
2023/05/30 04:23:51;;;;;;;8.05;3.35;;;;;;;11.43;100.00;102924.00;5022670;28;20022;-59
2023/05/30 04:26:17;;;;;;;10.80;3.60;;;;;;;11.45;100.00;102920.50;5019299;28;20183;-59
2023/05/30 04:28:43;;;;;;;15.90;3.10;;;;;;;11.58;100.00;102921.31;5005703;28;20550;-62
2023/05/30 04:31:10;;;;;;;7.28;2.97;;;;;;;11.55;100.00;102923.97;5018622;28;20341;-60
2023/05/30 04:33:35;;;;;;;9.88;2.97;;;;;;;11.59;100.00;102930.97;5025321;28;20049;-59
2023/05/30 04:36:05;;;;;;;13.38;3.60;;;;;;;11.65;100.00;102937.13;5025941;28;20332;-60
2023/05/30 04:38:32;;;;;;;19.45;3.42;;;;;;;11.47;100.00;102949.53;5012971;28;20038;-58
2023/05/30 04:41:00;;;;;;;14.07;3.42;;;;;;;11.44;100.00;102941.63;5016757;28;20165;-61
2023/05/30 04:43:26;;;;;;;16.90;4.10;;;;;;;11.45;100.00;102946.00;5011306;28;20025;-60
2023/05/30 04:45:51;;;;;;;14.45;3.38;;;;;;;11.56;100.00;102938.06;5016247;28;20030;-61
2023/05/30 04:48:17;;;;;;;12.55;3.35;;;;;;;11.60;100.00;102934.50;5003639;28;20018;-60
2023/05/30 04:50:46;;;;;;;6.75;3.13;;;;;;;11.62;100.00;102936.25;5012764;28;20346;-62
2023/05/30 04:53:15;;;;;;;9.82;3.22;;;;;;;11.57;100.00;102932.78;5022999;28;20039;-59
2023/05/30 04:55:43;;;;;;;10.98;3.60;;;;;;;11.40;100.00;102935.47;5006246;28;20215;-60
2023/05/30 04:58:08;;;;;;;15.55;3.53;;;;;;;11.57;100.00;102937.16;5005783;28;20076;-60
2023/05/30 05:00:36;;;;;;;16.52;3.38;;;;;;;11.60;100.00;102940.69;4988541;28;20030;-59
2023/05/30 05:03:01;;;;;;;13.30;3.40;;;;;;;11.67;100.00;102937.97;5004919;28;20129;-64
2023/05/30 05:05:27;;;;;;;14.32;3.63;;;;;;;11.66;100.00;102938.88;5007278;28;20137;-59
2023/05/30 05:07:52;;;;;;;15.90;4.05;;;;;;;11.82;100.00;102944.94;5006413;28;20051;-61
2023/05/30 05:10:18;;;;;;;11.88;3.22;;;;;;;11.91;100.00;102944.03;5005144;28;20679;-60
2023/05/30 05:12:44;;;;;;;17.40;4.25;;;;;;;11.82;100.00;102945.84;5005220;28;20029;-60
2023/05/30 05:15:10;;;;;;;12.80;4.07;;;;;;;11.69;100.00;102947.69;5005118;28;20036;-59
2023/05/30 05:17:36;;;;;;;11.00;3.35;;;;;;;11.79;100.00;102943.22;4987899;28;20088;-59
2023/05/30 05:20:02;;;;;;;8.02;3.30;;;;;;;11.90;100.00;102943.16;5004619;28;20106;-58
2023/05/30 05:22:28;;;;;;;6.40;3.35;;;;;;;11.84;100.00;102944.09;5004647;28;20038;-61
2023/05/30 05:24:53;;;;;;;15.32;3.60;;;;;;;11.70;100.00;102941.50;5006916;28;20570;-59
2023/05/30 05:27:18;;;;;;;7.13;3.00;;;;;;;11.85;100.00;102944.94;5009240;28;20447;-61
2023/05/30 05:29:44;;;;;;;13.40;3.60;;;;;;;11.91;100.00;102939.63;5008954;28;20033;-58
2023/05/30 05:32:09;;;;;;;15.15;3.75;;;;;;;12.06;100.00;102951.88;5008961;28;20109;-61
2023/05/30 05:34:34;;;;;;;14.88;3.45;;;;;;;12.01;100.00;102945.72;5007854;28;20052;-59
2023/05/30 05:37:00;;;;;;;13.40;3.58;;;;;;;12.13;100.00;102940.41;5008649;28;20037;-59
2023/05/30 05:39:25;;;;;;;8.82;3.38;;;;;;;12.22;100.00;102949.19;5017408;28;20018;-59
2023/05/30 05:41:50;;;;;;;12.57;3.20;;;;;;;11.98;100.00;102948.41;5028915;28;20083;-59
2023/05/30 05:44:16;;;;;;;8.20;3.33;;;;;;;12.11;100.00;102947.47;5021961;28;20020;-61
2023/05/30 05:46:41;;;;;;;12.48;3.25;;;;;;;12.34;100.00;102943.78;5028483;28;20061;-59
2023/05/30 05:49:06;;;;;;;6.93;2.70;;;;;;;12.45;100.00;102940.16;5026216;28;20026;-62
2023/05/30 05:51:32;;;;;;;12.27;3.08;;;;;;;12.46;100.00;102948.09;5024414;28;20399;-56
2023/05/30 05:53:57;;;;;;;23.50;3.25;;;;;;;12.33;100.00;102949.06;5027999;28;20451;-54
2023/05/30 05:56:22;;;;;;;11.77;3.30;;;;;;;12.28;100.00;102945.59;5025115;28;20025;-58
2023/05/30 05:58:48;;;;;;;15.25;2.67;;;;;;;12.30;100.00;102942.06;5026423;28;20022;-58
2023/05/30 06:01:14;;;;;;;11.13;3.10;;;;;;;12.22;100.00;102939.47;5027831;28;20120;-59
2023/05/30 06:03:39;;;;;;;9.77;2.83;;;;;;;12.48;100.00;102945.44;5023423;28;20339;-57
2023/05/30 06:06:05;;;;;;;16.77;3.63;;;;;;;12.39;100.00;102946.38;5019090;28;20445;-57
2023/05/30 06:08:30;;;;;;;11.70;3.00;;;;;;;12.75;100.00;102946.97;5006187;28;20029;-55
2023/05/30 06:10:55;;;;;;;9.65;3.03;;;;;;;12.58;100.00;102949.75;5026361;28;20444;-56
2023/05/30 06:13:21;;;;;;;14.80;3.10;;;;;;;12.62;100.00;102948.84;5027334;28;20408;-59
2023/05/30 06:15:46;;;;;;;14.85;3.28;;;;;;;12.83;100.00;102944.25;5023411;28;20025;-59
2023/05/30 06:18:11;;;;;;;19.63;3.42;;;;;;;12.89;100.00;102949.47;5027976;28;20021;-58
2023/05/30 06:20:37;;;;;;;16.73;3.97;;;;;;;12.76;100.00;102950.47;5006920;28;20026;-58
2023/05/30 06:23:02;;;;;;;12.48;2.92;;;;;;;12.76;100.00;102950.47;5026075;28;20112;-60
2023/05/30 06:25:30;;;;;;;15.07;3.28;;;;;;;12.87;100.00;102948.63;5022317;28;20326;-56
2023/05/30 06:27:55;;;;;;;14.30;3.33;;;;;;;12.73;100.00;102953.16;5017420;28;20472;-60
2023/05/30 06:30:20;;;;;;;11.35;3.38;;;;;;;13.05;100.00;102949.31;5013128;28;20037;-58
2023/05/30 06:32:46;;;;;;;11.75;3.55;;;;;;;12.84;100.00;102943.38;4995693;28;20032;-58
2023/05/30 06:35:11;;;;;;;14.85;3.58;;;;;;;13.02;100.00;102954.66;5019481;28;20364;-60
2023/05/30 06:37:36;;;;;;;10.65;3.30;;;;;;;13.14;100.00;102957.19;5026714;28;20014;-55
2023/05/30 06:40:02;;;;;;;14.00;3.20;;;;;;;13.17;100.00;102963.31;5023796;28;20056;-58
2023/05/30 06:42:28;;;;;;;13.38;3.50;;;;;;;13.13;100.00;102971.28;5027519;28;20395;-62
2023/05/30 06:44:53;;;;;;;10.30;2.78;;;;;;;13.02;100.00;102970.53;5006581;28;20423;-61
2023/05/30 06:47:18;;;;;;;7.97;3.00;;;;;;;13.25;100.00;102970.28;5019860;28;20026;-57
2023/05/30 06:49:44;;;;;;;15.65;3.70;;;;;;;13.13;100.00;102967.78;5026965;28;20032;-57
2023/05/30 06:52:09;;;;;;;17.17;3.28;;;;;;;13.16;100.00;102973.03;5010648;28;20033;-59
2023/05/30 06:54:34;;;;;;;13.18;3.50;;;;;;;13.09;100.00;102973.97;5007342;28;20468;-59
2023/05/30 06:57:02;;;;;;;17.77;4.03;;;;;;;13.07;100.00;102971.38;5009496;28;20037;-58
2023/05/30 06:59:28;;;;;;;15.20;3.50;;;;;;;13.15;100.00;102971.28;5006469;28;20253;-60
2023/05/30 07:01:54;;;;;;;15.20;3.85;;;;;;;13.14;100.00;102966.88;5005624;28;20026;-60
2023/05/30 07:04:19;;;;;;;14.15;3.40;;;;;;;13.43;100.00;102972.75;5017194;28;20045;-58
2023/05/30 07:06:45;;;;;;;13.45;3.63;;;;;;;13.64;100.00;102961.91;5026740;28;20092;-54
2023/05/30 07:09:11;;;;;;;15.05;3.10;;;;;;;13.97;100.00;102963.25;5024468;28;20097;-61
2023/05/30 07:11:36;;;;;;;16.02;3.33;;;;;;;14.16;100.00;102979.78;5026841;28;20022;-58
2023/05/30 07:14:01;;;;;;;16.40;3.83;;;;;;;14.07;100.00;102975.47;5026717;28;20926;-58
2023/05/30 07:16:27;;;;;;;15.02;3.78;;;;;;;14.27;100.00;102974.31;5020510;28;20120;-59
2023/05/30 07:18:52;;;;;;;15.32;3.28;;;;;;;14.39;100.00;102971.44;5023245;28;20322;-59
2023/05/30 07:21:17;;;;;;;12.25;3.35;;;;;;;14.43;100.00;102968.75;5007916;28;20022;-58
2023/05/30 07:23:43;;;;;;;14.10;3.25;;;;;;;14.27;100.00;102971.66;5006818;28;20030;-60
2023/05/30 07:26:08;;;;;;;18.02;3.72;;;;;;;14.43;99.81;102968.75;5009360;28;20416;-58
2023/05/30 07:28:33;;;;;;;11.75;3.72;;;;;;;14.69;99.70;102972.75;5027192;28;20546;-60
2023/05/30 07:30:58;;;;;;;12.88;3.40;;;;;;;14.63;100.00;102971.94;5025231;28;20049;-63
2023/05/30 07:33:24;;;;;;;12.57;3.55;;;;;;;14.37;99.83;102970.63;5022425;28;20125;-58
2023/05/30 07:35:49;;;;;;;14.30;3.55;;;;;;;14.36;100.00;102966.19;5026071;28;20104;-58
2023/05/30 07:38:15;;;;;;;11.80;3.03;;;;;;;14.70;99.93;102955.94;5021491;28;20021;-58
2023/05/30 07:40:40;;;;;;;12.77;3.00;;;;;;;14.83;99.59;102952.19;5026683;28;20033;-58
2023/05/30 07:43:05;;;;;;;16.40;3.53;;;;;;;15.10;97.87;102952.56;5007148;28;20057;-58
2023/05/30 07:45:31;;;;;;;16.73;3.50;;;;;;;15.11;96.72;102956.13;5022189;28;20014;-56
2023/05/30 07:47:56;;;;;;;15.18;3.45;;;;;;;15.15;96.68;102956.00;5024817;28;20507;-60
2023/05/30 07:50:21;;;;;;;12.95;3.05;;;;;;;15.35;97.52;102956.53;5023530;28;20555;-58
2023/05/30 07:52:47;;;;;;;12.27;3.08;;;;;;;14.97;97.71;102965.22;5024162;28;20103;-59
2023/05/30 07:55:12;;;;;;;16.83;3.83;;;;;;;14.57;98.46;102958.78;5007703;28;20519;-60
2023/05/30 07:57:38;;;;;;;16.75;3.55;;;;;;;14.59;99.03;102970.25;5020937;28;20441;-57
2023/05/30 08:00:08;;;;;;;15.05;3.35;;;;;;;14.70;97.15;102970.09;5025808;28;20069;-57
2023/05/30 08:02:34;;;;;;;14.68;3.70;;;;;;;14.76;97.89;102967.31;4998022;28;20053;-58
2023/05/30 08:04:59;;;;;;;13.40;3.60;;;;;;;14.76;98.05;102962.03;5025634;28;20021;-58
2023/05/30 08:07:24;;;;;;;14.98;3.75;;;;;;;15.01;97.15;102971.31;5025930;28;20040;-59
2023/05/30 08:09:50;;;;;;;14.35;3.60;;;;;;;14.76;98.53;102972.63;5026381;28;20030;-58
2023/05/30 08:12:19;;;;;;;12.05;3.75;;;;;;;15.26;97.16;102953.13;5021128;28;20103;-55
2023/05/30 08:14:45;;;;;;;15.50;3.80;;;;;;;15.43;95.11;102954.59;5025613;28;20376;-61
2023/05/30 08:17:15;;;;;;;16.02;3.22;;;;;;;15.19;96.47;102956.81;5024671;28;20024;-58
2023/05/30 08:19:42;;;;;;;11.45;3.50;;;;;;;15.37;95.78;102954.69;5020560;28;20471;-60
2023/05/30 08:22:08;;;;;;;16.13;3.45;;;;;;;15.43;94.54;102946.63;5025057;28;20060;-60
2023/05/30 08:24:33;;;;;;;14.98;3.28;;;;;;;15.41;94.27;102946.66;5023735;28;20053;-60
2023/05/30 08:27:01;;;;;;;16.65;4.03;;;;;;;15.52;94.85;102943.78;5003791;28;20053;-59
2023/05/30 08:29:26;;;;;;;18.50;3.65;;;;;;;15.02;95.17;102943.91;5024747;28;20018;-60
2023/05/30 08:31:51;;;;;;;14.25;3.83;;;;;;;14.98;95.66;102944.84;5023406;28;20032;-59
2023/05/30 08:34:17;;;;;;;16.98;3.65;;;;;;;15.06;97.22;102940.28;5020493;28;20026;-58
2023/05/30 08:36:42;;;;;;;17.33;3.65;;;;;;;15.03;97.07;102946.50;5024936;28;20115;-62
2023/05/30 08:39:07;;;;;;;12.82;3.60;;;;;;;14.78;96.84;102948.75;5024692;28;20022;-59
2023/05/30 08:41:33;;;;;;;16.95;3.67;;;;;;;14.77;97.33;102950.50;5021835;28;20032;-58
2023/05/30 08:43:58;;;;;;;14.23;3.22;;;;;;;14.68;98.43;102947.09;5024054;28;20040;-59
2023/05/30 08:46:24;;;;;;;15.35;3.65;;;;;;;14.84;97.61;102940.66;5022776;28;20423;-60
2023/05/30 08:48:50;;;;;;;15.88;3.88;;;;;;;15.12;96.48;102933.97;5021043;28;20028;-61
2023/05/30 08:51:17;;;;;;;11.30;3.55;;;;;;;15.56;95.17;102933.94;5006533;28;20318;-59
2023/05/30 08:53:48;;;;;;;12.80;3.22;;;;;;;15.82;93.23;102936.94;5003824;28;20491;-61
2023/05/30 08:56:21;;;;;;;17.95;4.13;;;;;;;15.58;94.08;102921.50;5023963;28;20087;-60
2023/05/30 08:58:50;;;;;;;19.15;4.43;;;;;;;15.60;94.45;102924.13;5023719;28;20480;-60
2023/05/30 09:01:16;;;;;;;17.17;4.78;;;;;;;15.63;94.49;102924.91;5007559;28;20021;-59
2023/05/30 09:03:42;;;;;;;13.63;3.72;;;;;;;15.33;95.19;102930.00;5010172;28;20057;-59
2023/05/30 09:06:08;;;;;;;17.38;3.75;;;;;;;15.61;95.39;102933.84;5027924;28;20022;-59
2023/05/30 09:08:34;;;;;;;17.17;3.88;;;;;;;15.36;96.28;102927.28;5025491;28;20380;-60
2023/05/30 09:11:00;;;;;;;17.25;4.15;;;;;;;15.13;97.42;102917.13;5010286;28;20025;-60
2023/05/30 09:13:25;;;;;;;17.55;3.95;;;;;;;15.27;97.00;102911.53;5027480;28;20032;-60
2023/05/30 09:15:51;;;;;;;31.38;5.28;;;;;;;15.10;97.69;102914.50;5023347;28;20025;-59
2023/05/30 09:18:17;;;;;;;8.85;3.20;;;;;;;15.44;96.93;102920.94;5028387;28;20029;-62
2023/05/30 09:20:43;;;;;;;14.88;3.67;;;;;;;15.65;97.11;102916.91;5027301;28;20032;-62
2023/05/30 09:23:08;;;;;;;19.58;3.58;;;;;;;15.61;95.98;102910.81;5006946;28;20104;-61
2023/05/30 09:25:42;;;;;;;21.08;4.32;;;;;;;15.46;95.09;102905.81;5028886;28;20321;-60
2023/05/30 09:28:08;;;;;;;21.05;3.67;;;;;;;15.69;95.77;102909.75;5027833;28;20033;-57
2023/05/30 09:30:33;;;;;;;16.88;3.67;;;;;;;15.53;94.81;102918.06;5023987;28;20415;-59
2023/05/30 09:33:00;;;;;;;14.57;3.42;;;;;;;15.59;95.12;102914.41;5027261;28;20037;-59
2023/05/30 09:35:26;;;;;;;12.52;3.50;;;;;;;15.80;94.29;102915.69;5026815;28;20029;-60
2023/05/30 09:37:51;;;;;;;13.20;3.80;;;;;;;15.87;95.95;102911.97;5024485;28;20033;-57
2023/05/30 09:40:16;;;;;;;16.92;3.90;;;;;;;15.46;95.70;102912.00;5027642;28;20078;-60
2023/05/30 09:42:47;;;;;;;98.82;6.97;;;;;;;15.72;96.57;102913.25;5023112;28;20422;-64
2023/05/30 09:45:16;;;;;;;8.70;3.05;;;;;;;15.86;95.42;102920.03;5028832;28;20455;-63
2023/05/30 09:47:45;;;;;;;10.02;3.33;;;;;;;15.77;94.25;102921.06;5026433;28;20033;-58
2023/05/30 09:50:18;;;;;;;10.85;3.65;;;;;;;16.03;94.47;102925.84;5025118;28;20048;-57
2023/05/30 09:52:44;;;;;;;10.32;3.53;;;;;;;16.04;93.45;102918.72;5026827;28;20029;-58
2023/05/30 09:55:13;;;;;;;11.07;3.33;;;;;;;16.35;92.32;102918.00;5026916;28;20099;-60
2023/05/30 09:57:40;;;;;;;;;;;;;;;16.76;94.00;102911.59;5020264;28;20025;-58
2023/05/30 10:00:11;;;;;;;9.55;3.40;;;;;;;17.04;90.87;102911.72;5026842;28;20459;-61
2023/05/30 10:02:41;;;;;;;13.38;3.60;;;;;;;17.10;91.29;102908.03;5023143;28;20045;-60
2023/05/30 10:05:17;;;;;;;8.07;3.22;;;;;;;16.85;91.60;102900.72;5028097;28;20216;-60
2023/05/30 10:07:43;;;;;;;19.02;3.83;;;;;;;17.15;90.16;102903.47;5026544;28;20022;-60
2023/05/30 10:10:08;;;;;;;12.57;3.17;;;;;;;17.24;92.23;102907.63;5006068;28;20040;-59
2023/05/30 10:12:34;;;;;;;27.77;3.50;;;;;;;17.25;91.61;102901.38;5024557;28;20038;-60
2023/05/30 10:14:59;;;;;;;9.15;3.28;;;;;;;17.21;92.11;102906.84;5026307;28;20029;-59
2023/05/30 10:17:27;;;;;;;8.57;3.10;;;;;;;17.33;91.94;102906.50;5008604;28;20403;-60
2023/05/30 10:20:02;;;;;;;7.00;3.08;;;;;;;17.12;90.23;102902.66;5005023;28;20133;-56
2023/05/30 10:22:30;;;;;;;13.95;4.15;;;;;;;17.18;90.71;102907.81;5027354;28;20025;-61
2023/05/30 10:24:56;;;;;;;9.73;3.00;;;;;;;16.90;92.82;102905.91;5025817;28;20021;-60
2023/05/30 10:27:27;;;;;;;21.92;3.40;;;;;;;17.33;91.48;102906.50;5006318;28;20033;-61
2023/05/30 10:30:04;;;;;;;15.85;3.30;;;;;;;17.07;93.62;102900.16;4986656;28;20120;-60
2023/05/30 10:32:32;;;;;;;36.47;4.57;;;;;;;17.48;96.18;102909.59;4986007;28;20117;-59
2023/05/30 10:35:13;;;;;;;8.40;2.60;;;;;;;17.21;94.38;102918.38;5006500;28;20033;-62
2023/05/30 10:37:39;;;;;;;9.30;2.70;;;;;;;17.67;90.35;102910.78;5026564;28;20430;-59
2023/05/30 10:40:52;;;;;;;5.47;2.53;;;;;;;18.03;88.35;102906.16;5025862;28;20053;-60
2023/05/30 10:43:33;;;;;;;7.47;2.70;;;;;;;17.58;92.46;102911.06;4926236;29;20392;-60
2023/05/30 10:46:12;;;;;;;4.97;2.47;;;;;;;17.17;93.81;102901.63;4909985;29;20044;-59
2023/05/30 10:48:43;;;;;;;8.60;2.45;;;;;;;17.68;92.13;102911.69;4989668;28;20156;-59
2023/05/30 10:51:10;;;;;;;5.15;2.47;;;;;;;17.63;92.83;102905.59;5026307;28;20030;-60
2023/05/30 10:53:40;;;;;;;8.48;2.75;;;;;;;17.50;94.04;102905.13;5023064;28;20057;-60
2023/05/30 10:56:28;;;;;;;5.40;2.88;;;;;;;17.49;93.06;102906.03;5005879;28;20120;-59
2023/05/30 10:58:55;;;;;;;9.15;2.35;;;;;;;17.71;92.45;102905.38;5025849;28;20025;-62
2023/05/30 11:01:26;;;;;;;10.82;2.88;;;;;;;17.56;93.76;102907.59;5022822;28;20030;-58
2023/05/30 11:03:58;;;;;;;8.32;2.65;;;;;;;17.40;95.25;102913.38;5024977;28;20053;-60
2023/05/30 11:06:26;;;;;;;21.40;4.03;;;;;;;17.25;98.45;102909.38;5023716;28;20101;-61
2023/05/30 11:08:53;;;;;;;7.05;2.97;;;;;;;16.87;98.72;102898.88;5025037;28;20032;-61
2023/05/30 11:11:19;;;;;;;8.63;2.80;;;;;;;17.20;98.89;102905.09;5024847;28;20017;-60
2023/05/30 11:13:46;;;;;;;5.75;2.90;;;;;;;16.86;99.95;102902.44;5022559;28;20029;-59